createdAt,value
2019-04-16T00:01:23.026Z,6.70
2019-04-16T00:03:55.585Z,6.70
2019-04-16T00:06:28.238Z,6.60
2019-04-16T00:09:04.161Z,6.60
2019-04-16T00:11:34.092Z,6.50
2019-04-16T00:14:04.490Z,6.50
2019-04-16T00:16:32.846Z,6.40
2019-04-16T00:19:04.645Z,6.30
2019-04-16T00:21:47.628Z,6.30
2019-04-16T00:24:20.382Z,6.30
2019-04-16T00:26:48.885Z,6.30
2019-04-16T00:29:17.136Z,6.30
2019-04-16T00:31:47.072Z,6.30
2019-04-16T00:34:15.405Z,6.40
2019-04-16T00:36:48.393Z,6.50
2019-04-16T00:39:13.683Z,6.50
2019-04-16T00:41:41.972Z,6.50
2019-04-16T00:44:10.298Z,6.50
2019-04-16T00:46:38.548Z,6.50
2019-04-16T00:49:06.851Z,6.50
2019-04-16T00:51:35.107Z,6.50
2019-04-16T00:54:03.412Z,6.50
2019-04-16T00:56:31.706Z,6.50
2019-04-16T00:59:00.081Z,6.50
2019-04-16T01:01:28.328Z,6.50
2019-04-16T01:03:56.614Z,6.40
2019-04-16T01:06:24.885Z,6.40
2019-04-16T01:08:55.264Z,6.40
2019-04-16T01:11:23.731Z,6.40
2019-04-16T01:13:53.234Z,6.30
2019-04-16T01:16:22.103Z,6.30
2019-04-16T01:18:50.437Z,6.20
2019-04-16T01:21:18.705Z,6.20
2019-04-16T01:23:49.345Z,6.20
2019-04-16T01:26:16.967Z,6.20
2019-04-16T01:28:46.971Z,6.10
2019-04-16T01:31:31.728Z,6.00
2019-04-16T01:34:18.175Z,6.00
2019-04-16T01:36:57.412Z,6.10
2019-04-16T01:39:27.332Z,6.10
2019-04-16T01:41:55.591Z,6.10
2019-04-16T01:44:28.640Z,6.10
2019-04-16T01:46:53.847Z,6.10
2019-04-16T01:49:22.138Z,6.10
2019-04-16T01:51:50.402Z,6.00
2019-04-16T01:54:22.591Z,5.90
2019-04-16T01:56:48.662Z,5.90
2019-04-16T01:59:16.958Z,5.90
2019-04-16T02:01:45.291Z,6.00
2019-04-16T02:04:13.560Z,5.90
2019-04-16T02:06:41.821Z,5.90
2019-04-16T02:09:21.926Z,5.80
2019-04-16T02:11:41.396Z,5.80
2019-04-16T02:14:10.087Z,5.70
2019-04-16T02:16:38.416Z,5.70
2019-04-16T02:19:06.705Z,5.70
2019-04-16T02:21:34.960Z,5.60
2019-04-16T02:24:03.252Z,5.60
2019-04-16T02:26:31.521Z,5.50
2019-04-16T02:28:59.806Z,5.50
2019-04-16T02:31:28.068Z,5.40
2019-04-16T02:33:56.333Z,5.30
2019-04-16T02:36:24.604Z,5.20
2019-04-16T02:38:53.697Z,5.20
2019-04-16T02:41:23.251Z,5.30
2019-04-16T02:43:52.128Z,5.30
2019-04-16T02:46:20.472Z,5.30
2019-04-16T02:48:51.461Z,5.20
2019-04-16T02:51:23.089Z,5.30
2019-04-16T02:54:09.768Z,5.30
2019-04-16T02:56:54.660Z,5.30
2019-04-16T02:59:33.418Z,5.30
2019-04-16T03:02:22.706Z,5.20
2019-04-16T03:04:52.894Z,5.20
2019-04-16T03:07:21.140Z,5.00
2019-04-16T03:10:00.522Z,5.00
2019-04-16T03:12:20.996Z,5.00
2019-04-16T03:14:49.425Z,4.90
2019-04-16T03:17:22.085Z,4.80
2019-04-16T03:19:52.154Z,4.70
2019-04-16T03:22:20.453Z,4.60
2019-04-16T03:24:48.696Z,4.60
2019-04-16T03:27:21.892Z,4.50
2019-04-16T03:29:46.976Z,4.40
2019-04-16T03:32:15.773Z,4.40
2019-04-16T03:34:44.105Z,4.30
2019-04-16T03:37:12.472Z,4.30
2019-04-16T03:39:43.834Z,4.20
2019-04-16T03:42:10.837Z,4.10
2019-04-16T03:44:39.088Z,4.10
2019-04-16T03:47:07.368Z,4.20
2019-04-16T03:49:35.632Z,4.20
2019-04-16T03:52:04.794Z,4.10
2019-04-16T03:54:33.972Z,4.10
2019-04-16T03:57:02.870Z,4.00
2019-04-16T03:59:31.188Z,4.00
2019-04-16T04:01:59.461Z,3.90
2019-04-16T04:04:29.221Z,3.90
2019-04-16T04:06:57.725Z,3.80
2019-04-16T04:09:25.986Z,3.80
2019-04-16T04:11:54.273Z,3.90
2019-04-16T04:14:23.525Z,3.80
2019-04-16T04:16:52.017Z,3.90
2019-04-16T04:19:20.275Z,3.90
2019-04-16T04:21:50.574Z,3.80
2019-04-16T04:24:18.543Z,3.70
2019-04-16T04:26:46.851Z,3.60
2019-04-16T04:29:15.110Z,3.50
2019-04-16T04:31:43.403Z,3.50
2019-04-16T04:34:15.466Z,3.40
2019-04-16T04:36:41.746Z,3.40
2019-04-16T04:39:14.714Z,3.40
2019-04-16T04:41:40.073Z,3.30
2019-04-16T04:44:08.370Z,3.30
2019-04-16T04:46:36.621Z,3.20
2019-04-16T04:49:04.909Z,3.30
2019-04-16T04:51:33.186Z,3.20
2019-04-16T04:54:01.487Z,3.20
2019-04-16T04:56:29.750Z,3.20
2019-04-16T04:58:58.021Z,3.20
2019-04-16T05:01:26.295Z,3.30
2019-04-16T05:04:05.097Z,3.30
2019-04-16T05:06:34.999Z,3.30
2019-04-16T05:09:03.917Z,3.30
2019-04-16T05:11:32.189Z,3.30
2019-04-16T05:14:00.492Z,3.30
2019-04-16T05:16:31.468Z,3.30
2019-04-16T05:18:58.755Z,3.40
2019-04-16T05:21:27.024Z,3.40
2019-04-16T05:23:57.535Z,3.70
2019-04-16T05:26:25.271Z,4.00
2019-04-16T05:28:55.212Z,4.10
2019-04-16T05:31:25.857Z,4.10
2019-04-16T05:33:53.510Z,4.30
2019-04-16T05:36:22.085Z,4.40
2019-04-16T05:38:50.416Z,4.50
2019-04-16T05:41:22.055Z,4.60
2019-04-16T05:43:48.710Z,4.60
2019-04-16T05:46:16.960Z,4.80
2019-04-16T05:48:45.200Z,4.80
2019-04-16T05:51:13.500Z,4.90
2019-04-16T05:53:43.384Z,5.00
2019-04-16T05:56:29.605Z,5.10
2019-04-16T05:58:59.649Z,5.20
2019-04-16T06:01:29.562Z,5.30
2019-04-16T06:03:57.825Z,5.50
2019-04-16T06:06:31.185Z,5.60
2019-04-16T06:08:56.211Z,5.70
2019-04-16T06:11:29.020Z,5.80
2019-04-16T06:13:56.201Z,6.00
2019-04-16T06:16:26.200Z,6.10
2019-04-16T06:18:56.102Z,6.20
2019-04-16T06:21:41.162Z,6.20
2019-04-16T06:24:25.987Z,6.30
2019-04-16T06:26:55.906Z,6.40
2019-04-16T06:29:29.046Z,6.50
2019-04-16T06:32:12.654Z,6.60
2019-04-16T06:34:42.622Z,6.80
2019-04-16T06:37:20.589Z,6.80
2019-04-16T06:39:46.906Z,7.00
2019-04-16T06:42:23.194Z,7.20
2019-04-16T06:44:53.152Z,7.40
2019-04-16T06:47:23.089Z,7.50
2019-04-16T06:50:09.227Z,7.70
2019-04-16T06:52:39.151Z,7.80
2019-04-16T06:55:11.791Z,8.00
2019-04-16T06:57:57.712Z,8.20
2019-04-16T07:00:35.039Z,8.40
2019-04-16T07:03:25.828Z,8.70
2019-04-16T07:05:53.066Z,8.70
2019-04-16T07:08:41.804Z,8.90
2019-04-16T07:11:10.625Z,9.10
2019-04-16T07:13:41.879Z,9.20
2019-04-16T07:16:08.908Z,9.40
2019-04-16T07:18:38.520Z,9.60
2019-04-16T07:21:07.170Z,9.60
2019-04-16T07:23:35.555Z,9.70
2019-04-16T07:26:04.501Z,9.80
2019-04-16T07:28:34.838Z,9.90
2019-04-16T07:31:07.674Z,10.10
2019-04-16T07:33:41.965Z,10.10
2019-04-16T07:36:28.094Z,10.10
2019-04-16T07:39:28.237Z,10.20
2019-04-16T07:43:47.222Z,10.30
2019-04-16T07:44:48.175Z,10.40
2019-04-16T07:47:23.853Z,10.60
2019-04-16T07:50:02.703Z,10.70
2019-04-16T07:52:42.060Z,10.70
2019-04-16T07:55:18.563Z,10.80
2019-04-16T07:57:46.831Z,10.90
2019-04-16T08:00:15.687Z,10.90
2019-04-16T08:02:43.976Z,11.00
2019-04-16T08:05:12.255Z,11.10
2019-04-16T08:07:40.635Z,11.10
2019-04-16T08:10:08.981Z,11.20
2019-04-16T08:12:41.868Z,11.60
2019-04-16T08:15:14.614Z,11.70
2019-04-16T08:17:39.438Z,11.90
2019-04-16T08:20:07.934Z,12.20
2019-04-16T08:22:39.905Z,12.20
2019-04-16T08:25:07.309Z,12.30
2019-04-16T08:27:36.116Z,12.40
2019-04-16T08:30:07.311Z,12.60
2019-04-16T08:32:35.571Z,12.70
2019-04-16T08:35:04.154Z,12.80
2019-04-16T08:37:32.450Z,13.10
2019-04-16T08:40:00.782Z,13.20
2019-04-16T08:42:30.828Z,13.30
2019-04-16T08:44:59.170Z,13.40
2019-04-16T08:47:27.433Z,13.50
2019-04-16T08:49:55.715Z,13.60
2019-04-16T08:52:23.986Z,13.80
2019-04-16T08:54:54.910Z,14.00
2019-04-16T08:57:22.283Z,14.10
2019-04-16T08:59:50.532Z,14.10
2019-04-16T09:02:18.832Z,14.10
2019-04-16T09:04:47.112Z,14.20
2019-04-16T09:07:33.351Z,14.40
2019-04-16T09:10:16.325Z,14.40
2019-04-16T09:12:32.788Z,14.40
2019-04-16T09:15:01.125Z,14.70
2019-04-16T09:17:31.300Z,14.80
2019-04-16T09:20:04.520Z,15.10
2019-04-16T09:22:31.217Z,15.30
2019-04-16T09:25:01.101Z,15.60
2019-04-16T09:27:34.450Z,15.60
2019-04-16T09:30:04.652Z,15.50
2019-04-16T09:32:43.417Z,15.50
2019-04-16T09:35:18.525Z,15.70
2019-04-16T09:37:47.661Z,15.80
2019-04-16T09:40:29.501Z,15.90
2019-04-16T09:42:58.590Z,15.90
2019-04-16T09:45:26.949Z,16.20
2019-04-16T09:47:55.298Z,16.30
2019-04-16T09:50:23.610Z,16.60
2019-04-16T09:52:52.413Z,17.30
2019-04-16T09:55:21.945Z,17.90
2019-04-16T09:57:50.343Z,18.20
2019-04-16T10:00:21.214Z,18.60
2019-04-16T10:02:49.710Z,18.90
2019-04-16T10:05:17.994Z,19.20
2019-04-16T10:07:46.529Z,19.40
2019-04-16T10:10:14.918Z,19.50
2019-04-16T10:12:43.281Z,20.00
2019-04-16T10:15:11.621Z,20.50
2019-04-16T10:17:39.961Z,20.50
2019-04-16T10:20:08.265Z,20.60
2019-04-16T10:22:36.632Z,20.90
2019-04-16T10:25:10.490Z,21.30
2019-04-16T10:27:40.239Z,21.60
2019-04-16T10:30:21.981Z,21.70
2019-04-16T10:32:50.287Z,22.00
2019-04-16T10:35:18.633Z,22.00
2019-04-16T10:37:47.032Z,21.70
2019-04-16T10:40:22.675Z,21.40
2019-04-16T10:43:08.891Z,21.30
2019-04-16T10:45:38.857Z,21.80
2019-04-16T10:48:18.016Z,22.10
2019-04-16T10:50:47.976Z,22.60
2019-04-16T10:53:17.986Z,22.90
2019-04-16T10:56:02.727Z,23.40
2019-04-16T10:58:32.732Z,23.20
2019-04-16T11:01:02.762Z,23.10
2019-04-16T11:03:34.839Z,23.10
2019-04-16T11:06:07.384Z,22.70
2019-04-16T11:08:35.721Z,22.70
2019-04-16T11:11:04.152Z,22.10
2019-04-16T11:13:34.112Z,22.30
2019-04-16T11:16:06.922Z,22.30
2019-04-16T11:18:35.290Z,22.50
2019-04-16T11:21:03.705Z,22.90
2019-04-16T11:23:32.056Z,23.20
2019-04-16T11:26:00.400Z,23.70
2019-04-16T11:28:28.708Z,23.90
2019-04-16T11:31:01.682Z,24.00
2019-04-16T11:33:29.991Z,24.20
2019-04-16T11:35:58.297Z,23.80
2019-04-16T11:38:26.663Z,23.50
2019-04-16T11:40:55.006Z,24.00
2019-04-16T11:43:23.364Z,24.80
2019-04-16T11:45:52.064Z,24.70
2019-04-16T11:48:20.399Z,25.10
2019-04-16T11:50:48.817Z,25.20
2019-04-16T11:53:17.131Z,25.40
2019-04-16T11:55:45.461Z,25.70
2019-04-16T11:58:30.461Z,25.20
2019-04-16T12:01:00.508Z,25.30
2019-04-16T12:03:36.613Z,25.50
2019-04-16T12:06:10.618Z,26.00
2019-04-16T12:08:58.451Z,25.90
2019-04-16T12:11:31.005Z,25.90
2019-04-16T12:14:08.685Z,26.30
2019-04-16T12:16:53.433Z,26.90
2019-04-16T12:19:39.447Z,27.20
2019-04-16T12:22:25.672Z,26.20
2019-04-16T12:24:55.652Z,26.00
2019-04-16T12:27:37.375Z,26.00
2019-04-16T12:30:08.442Z,25.70
2019-04-16T12:32:38.463Z,26.20
2019-04-16T12:35:08.460Z,26.70
2019-04-16T12:37:54.724Z,27.00
2019-04-16T12:40:24.695Z,27.20
2019-04-16T12:43:00.605Z,27.50
2019-04-16T12:45:30.629Z,27.20
2019-04-16T12:48:16.645Z,27.00
2019-04-16T12:51:02.191Z,27.60
2019-04-16T12:53:36.283Z,27.50
2019-04-16T12:56:18.490Z,27.50
2019-04-16T12:58:50.645Z,27.80
2019-04-16T13:01:25.745Z,28.30
2019-04-16T13:03:55.679Z,28.40
2019-04-16T13:06:40.282Z,28.40
2019-04-16T13:09:29.340Z,28.80
2019-04-16T13:11:59.257Z,29.40
2019-04-16T13:14:32.097Z,28.60
2019-04-16T13:17:04.758Z,28.70
2019-04-16T13:19:37.290Z,28.90
2019-04-16T13:22:07.594Z,28.00
2019-04-16T13:24:40.194Z,28.30
2019-04-16T13:27:16.060Z,28.50
2019-04-16T13:29:44.591Z,28.10
2019-04-16T13:32:13.009Z,28.30
2019-04-16T13:34:41.406Z,28.60
2019-04-16T13:37:09.734Z,28.80
2019-04-16T13:39:40.369Z,28.90
2019-04-16T13:42:08.995Z,29.10
2019-04-16T13:44:40.642Z,28.90
2019-04-16T13:47:09.032Z,28.70
2019-04-16T13:49:41.964Z,28.70
2019-04-16T13:52:10.335Z,28.80
2019-04-16T13:54:58.483Z,29.10
2019-04-16T13:57:34.166Z,29.50
2019-04-16T14:00:20.353Z,29.70
2019-04-16T14:02:51.037Z,29.80
2019-04-16T14:05:20.307Z,29.90
2019-04-16T14:07:48.664Z,29.80
2019-04-16T14:10:17.098Z,29.70
2019-04-16T14:12:45.390Z,29.70
2019-04-16T14:15:13.754Z,29.60
2019-04-16T14:17:52.197Z,29.50
2019-04-16T14:20:13.658Z,29.40
2019-04-16T14:22:42.274Z,28.30
2019-04-16T14:25:10.575Z,27.40
2019-04-16T14:27:38.831Z,27.40
2019-04-16T14:30:10.598Z,27.10
2019-04-16T14:32:38.801Z,26.40
2019-04-16T14:35:32.057Z,25.70
2019-04-16T14:37:47.654Z,24.50
2019-04-16T14:40:22.085Z,23.70
2019-04-16T14:42:56.241Z,23.20
2019-04-16T14:45:22.697Z,23.90
2019-04-16T14:47:51.042Z,24.90
2019-04-16T14:50:19.980Z,25.30
2019-04-16T14:52:49.444Z,24.40
2019-04-16T14:55:19.419Z,23.30
2019-04-16T14:58:04.325Z,22.80
2019-04-16T15:00:50.523Z,22.40
2019-04-16T15:03:26.576Z,22.20
2019-04-16T15:06:11.644Z,22.60
2019-04-16T15:08:50.594Z,22.70
2019-04-16T15:11:38.412Z,22.50
2019-04-16T15:14:16.996Z,22.60
2019-04-16T15:16:50.530Z,23.10
2019-04-16T15:19:27.811Z,24.00
2019-04-16T15:22:14.612Z,24.20
2019-04-16T15:24:53.796Z,23.80
2019-04-16T15:27:39.775Z,23.30
2019-04-16T15:30:12.834Z,22.50
2019-04-16T15:32:42.941Z,22.30
2019-04-16T15:35:14.933Z,22.10
2019-04-16T15:37:45.282Z,21.90
2019-04-16T15:40:15.450Z,22.70
2019-04-16T15:42:54.086Z,22.60
2019-04-16T15:45:29.895Z,22.20
2019-04-16T15:48:05.722Z,22.10
2019-04-16T15:50:50.439Z,21.40
2019-04-16T15:53:20.435Z,20.90
2019-04-16T15:55:53.057Z,20.70
2019-04-16T15:58:23.009Z,20.50
2019-04-16T16:00:55.572Z,20.30
2019-04-16T16:03:27.967Z,20.30
2019-04-16T16:06:09.897Z,20.40
2019-04-16T16:08:39.854Z,20.20
2019-04-16T16:11:24.591Z,20.10
2019-04-16T16:13:52.884Z,20.00
2019-04-16T16:16:21.149Z,19.70
2019-04-16T16:18:49.449Z,19.50
2019-04-16T16:21:17.742Z,19.40
2019-04-16T16:23:46.129Z,19.30
2019-04-16T16:26:14.404Z,19.20
2019-04-16T16:28:42.785Z,19.20
2019-04-16T16:31:11.043Z,19.10
2019-04-16T16:33:39.345Z,19.00
2019-04-16T16:36:07.594Z,19.10
2019-04-16T16:38:35.894Z,19.00
2019-04-16T16:41:04.220Z,18.90
2019-04-16T16:43:32.490Z,18.80
2019-04-16T16:46:05.216Z,18.80
2019-04-16T16:48:33.555Z,18.70
2019-04-16T16:51:01.878Z,18.60
2019-04-16T16:53:31.810Z,18.50
2019-04-16T16:56:01.765Z,18.40
2019-04-16T16:58:40.349Z,18.10
2019-04-16T17:01:26.299Z,18.00
2019-04-16T17:03:58.997Z,17.90
2019-04-16T17:06:28.850Z,17.80
2019-04-16T17:08:57.231Z,17.70
2019-04-16T17:11:25.489Z,17.70
2019-04-16T17:13:53.756Z,17.60
2019-04-16T17:16:22.195Z,17.60
2019-04-16T17:18:50.531Z,17.60
2019-04-16T17:21:18.835Z,17.60
2019-04-16T17:23:47.194Z,17.60
2019-04-16T17:26:16.615Z,17.50
2019-04-16T17:28:45.040Z,17.50
2019-04-16T17:31:14.471Z,17.40
2019-04-16T17:33:42.756Z,17.20
2019-04-16T17:36:11.152Z,17.30
2019-04-16T17:38:39.473Z,17.20
2019-04-16T17:41:09.424Z,17.10
2019-04-16T17:43:59.825Z,17.00
2019-04-16T17:46:33.186Z,16.90
2019-04-16T17:49:21.162Z,16.80
2019-04-16T17:52:05.970Z,16.70
2019-04-16T17:54:41.795Z,16.70
2019-04-16T17:57:11.765Z,16.50
2019-04-16T17:59:44.403Z,16.40
2019-04-16T18:02:25.114Z,16.30
2019-04-16T18:04:57.311Z,16.10
2019-04-16T18:07:30.419Z,15.90
2019-04-16T18:10:16.638Z,15.90
2019-04-16T18:12:55.102Z,15.70
2019-04-16T18:15:32.896Z,15.70
2019-04-16T18:18:08.568Z,15.60
2019-04-16T18:20:57.159Z,15.50
2019-04-16T18:23:21.979Z,15.40
2019-04-16T18:26:08.164Z,15.30
2019-04-16T18:28:38.155Z,15.10
2019-04-16T18:31:10.734Z,15.00
2019-04-16T18:33:49.788Z,14.90
2019-04-16T18:36:19.794Z,14.80
2019-04-16T18:38:49.799Z,14.70
2019-04-16T18:41:22.819Z,14.70
2019-04-16T18:44:09.048Z,14.60
2019-04-16T18:46:50.856Z,14.50
2019-04-16T18:49:29.825Z,14.40
2019-04-16T18:51:58.103Z,14.30
2019-04-16T18:54:26.446Z,14.20
2019-04-16T18:56:54.711Z,14.10
2019-04-16T18:59:23.076Z,14.20
2019-04-16T19:01:53.091Z,14.30
2019-04-16T19:04:21.420Z,14.20
2019-04-16T19:06:49.746Z,14.10
2019-04-16T19:09:20.853Z,14.10
2019-04-16T19:11:48.067Z,14.00
2019-04-16T19:14:16.351Z,13.90
2019-04-16T19:16:44.656Z,13.80
2019-04-16T19:19:13.029Z,13.60
2019-04-16T19:21:42.628Z,13.50
2019-04-16T19:24:11.188Z,13.40
2019-04-16T19:26:39.471Z,13.30
2019-04-16T19:29:13.362Z,13.20
2019-04-16T19:31:37.774Z,13.20
2019-04-16T19:34:10.175Z,13.10
2019-04-16T19:36:36.164Z,13.00
2019-04-16T19:39:07.106Z,13.00
2019-04-16T19:41:36.159Z,13.30
2019-04-16T19:44:07.238Z,13.30
2019-04-16T19:46:34.894Z,13.20
2019-04-16T19:49:03.936Z,13.20
2019-04-16T19:51:32.621Z,13.20
2019-04-16T19:54:02.169Z,13.10
2019-04-16T19:56:33.438Z,13.10
2019-04-16T19:59:01.535Z,13.00
2019-04-16T20:01:30.298Z,12.80
2019-04-16T20:03:59.008Z,12.70
2019-04-16T20:06:27.614Z,12.60
2019-04-16T20:08:55.947Z,12.50
2019-04-16T20:11:24.326Z,12.40
2019-04-16T20:13:52.653Z,12.20
2019-04-16T20:16:21.098Z,12.10
2019-04-16T20:18:51.096Z,12.10
2019-04-16T20:21:19.434Z,11.90
2019-04-16T20:23:47.703Z,11.80
2019-04-16T20:26:15.996Z,11.70
2019-04-16T20:28:45.373Z,11.60
2019-04-16T20:31:14.310Z,11.50
2019-04-16T20:33:42.679Z,11.50
2019-04-16T20:36:10.969Z,11.40
2019-04-16T20:38:39.330Z,11.40
2019-04-16T20:41:07.695Z,11.30
2019-04-16T20:43:36.012Z,11.30
2019-04-16T20:46:04.362Z,11.30
2019-04-16T20:48:32.684Z,11.40
2019-04-16T20:51:01.030Z,11.50
2019-04-16T20:53:29.333Z,11.50
2019-04-16T20:55:57.763Z,11.40
2019-04-16T20:58:30.774Z,11.30
2019-04-16T21:00:57.752Z,11.30
2019-04-16T21:03:26.135Z,11.20
2019-04-16T21:05:58.864Z,11.20
2019-04-16T21:08:25.345Z,11.10
2019-04-16T21:10:54.313Z,11.00
2019-04-16T21:13:23.058Z,10.90
2019-04-16T21:15:51.316Z,10.80
2019-04-16T21:18:19.620Z,10.80
2019-04-16T21:20:50.827Z,10.70
2019-04-16T21:23:17.935Z,10.70
2019-04-16T21:25:46.725Z,10.60
2019-04-16T21:28:19.660Z,10.50
2019-04-16T21:30:49.575Z,10.50
2019-04-16T21:33:20.411Z,10.40
2019-04-16T21:35:51.050Z,10.40
2019-04-16T21:38:23.945Z,10.30
2019-04-16T21:40:52.863Z,10.20
2019-04-16T21:43:22.209Z,10.20
2019-04-16T21:45:50.568Z,10.10
2019-04-16T21:48:18.905Z,10.10
2019-04-16T21:50:47.609Z,10.00
2019-04-16T21:53:16.555Z,9.90
2019-04-16T21:55:44.824Z,9.90
2019-04-16T21:58:14.539Z,9.80
2019-04-16T22:00:47.780Z,9.70
2019-04-16T22:03:17.711Z,9.70
2019-04-16T22:05:48.357Z,9.60
2019-04-16T22:08:15.996Z,9.60
2019-04-16T22:10:46.587Z,9.50
2019-04-16T22:13:19.096Z,9.40
2019-04-16T22:15:44.374Z,9.30
2019-04-16T22:18:12.625Z,9.30
2019-04-16T22:20:40.923Z,9.20
2019-04-16T22:23:09.208Z,9.20
2019-04-16T22:25:37.551Z,9.10
2019-04-16T22:28:11.354Z,9.00
2019-04-16T22:30:35.910Z,9.00
2019-04-16T22:33:06.720Z,9.00
2019-04-16T22:35:34.303Z,9.00
2019-04-16T22:38:02.574Z,9.00
2019-04-16T22:40:32.615Z,8.90
2019-04-16T22:43:06.204Z,8.90
2019-04-16T22:45:43.244Z,8.90
2019-04-16T22:48:11.494Z,8.90
2019-04-16T22:50:39.797Z,8.80
2019-04-16T22:53:08.122Z,8.80
2019-04-16T22:55:36.414Z,8.80
2019-04-16T22:58:05.255Z,8.70
2019-04-16T23:00:35.325Z,11.50
2019-04-16T23:03:03.675Z,8.80
2019-04-16T23:05:32.088Z,8.80
2019-04-16T23:08:00.608Z,8.80
2019-04-16T23:10:28.864Z,8.80
2019-04-16T23:13:00.436Z,8.90
2019-04-16T23:15:27.794Z,8.90
2019-04-16T23:17:56.083Z,8.90
2019-04-16T23:20:29.731Z,8.90
2019-04-16T23:22:54.343Z,8.90
2019-04-16T23:25:26.775Z,8.90
2019-04-16T23:27:52.654Z,8.90
2019-04-16T23:30:20.959Z,8.90
2019-04-16T23:32:49.260Z,8.90
2019-04-16T23:35:17.514Z,8.80
2019-04-16T23:37:45.801Z,8.80
2019-04-16T23:40:14.042Z,8.80
2019-04-16T23:42:43.965Z,8.80
2019-04-16T23:45:31.116Z,8.70
2019-04-16T23:47:57.396Z,8.70
2019-04-16T23:50:27.301Z,8.70
2019-04-16T23:52:59.670Z,8.60
2019-04-16T23:55:29.696Z,8.60
2019-04-16T23:57:59.718Z,8.60
